Time;durP1;ratioP1;P1;durP2;ratioP2;P2;SDS_P1;SDS_P2;PMS_P1;PMS_P2;Temp;Humidity;BMP_temperature;BMP_pressure;BME280_temperature;BME280_humidity;BME280_pressure;Samples;Min_cycle;Max_cycle;Signal;HPM_P1;HPM_P2
2023/03/20 00:01:31;;;;;;;13.82;6.38;;;7.80;99.90;;;;;;5026738;28;20071;-74
2023/03/20 00:03:57;;;;;;;17.85;6.45;;;7.80;99.90;;;;;;5033631;28;20151;-74
2023/03/20 00:06:30;;;;;;;18.30;6.97;;;7.80;99.90;;;;;;5033198;28;20108;-63
2023/03/20 00:09:01;;;;;;;28.30;7.75;;;7.80;99.90;;;;;;5033959;28;20083;-74
2023/03/20 00:11:31;;;;;;;19.42;7.05;;;7.80;99.90;;;;;;5033520;28;20053;-75
2023/03/20 00:14:03;;;;;;;16.10;6.55;;;7.80;99.90;;;;;;5033690;28;20041;-74
2023/03/20 00:16:36;;;;;;;22.77;7.13;;;7.80;99.90;;;;;;5028012;28;20155;-76
2023/03/20 00:19:03;;;;;;;17.00;6.80;;;7.80;99.90;;;;;;5033396;28;20041;-62
2023/03/20 00:21:29;;;;;;;16.85;7.53;;;7.80;99.90;;;;;;5033539;28;20025;-74
2023/03/20 00:23:56;;;;;;;15.68;6.45;;;7.80;99.90;;;;;;5034156;28;20416;-75
2023/03/20 00:26:27;;;;;;;15.98;6.22;;;7.80;99.90;;;;;;5032549;28;20325;-75
2023/03/20 00:28:53;;;;;;;15.63;6.05;;;7.80;99.90;;;;;;5033589;28;20462;-70
2023/03/20 00:31:26;;;;;;;21.08;6.68;;;7.80;99.90;;;;;;5029482;28;20060;-62
2023/03/20 00:33:54;;;;;;;20.00;5.95;;;7.80;99.90;;;;;;5032403;28;20042;-62
2023/03/20 00:36:20;;;;;;;11.98;5.25;;;7.80;99.90;;;;;;5032730;28;20041;-74
2023/03/20 00:38:46;;;;;;;16.90;6.30;;;7.80;99.90;;;;;;5033828;28;20434;-74
2023/03/20 00:41:30;;;;;;;20.00;6.60;;;7.80;99.90;;;;;;5033178;28;20036;-74
2023/03/20 00:44:14;;;;;;;12.02;4.60;;;7.80;99.90;;;;;;5032240;28;20286;-74
2023/03/20 00:46:40;;;;;;;12.18;5.57;;;7.80;99.90;;;;;;5033028;28;20020;-75
2023/03/20 00:49:09;;;;;;;11.67;4.90;;;7.80;99.90;;;;;;5032906;28;20033;-74
2023/03/20 00:51:35;;;;;;;11.20;5.13;;;7.80;99.90;;;;;;5029530;28;20033;-62
2023/03/20 00:54:00;;;;;;;9.82;4.93;;;7.80;99.90;;;;;;5032402;28;20305;-74
2023/03/20 00:56:32;;;;;;;10.67;5.17;;;7.80;99.90;;;;;;5034201;28;20087;-74
2023/03/20 00:59:01;;;;;;;13.35;5.65;;;7.80;99.90;;;;;;5013305;28;20033;-76
2023/03/20 01:01:28;;;;;;;15.55;6.45;;;7.80;99.90;;;;;;5032631;28;20029;-75
2023/03/20 01:03:54;;;;;;;13.50;6.50;;;7.80;99.90;;;;;;5030303;28;20106;-63
2023/03/20 01:06:19;;;;;;;11.73;5.80;;;7.80;99.90;;;;;;5032298;28;20108;-74
2023/03/20 01:08:47;;;;;;;12.20;6.30;;;7.80;99.90;;;;;;5033244;28;20409;-77
2023/03/20 01:11:15;;;;;;;12.63;6.40;;;7.80;99.90;;;;;;5033371;28;20063;-62
2023/03/20 01:13:41;;;;;;;11.52;6.35;;;7.80;99.90;;;;;;5033041;28;20035;-75
2023/03/20 01:16:21;;;;;;;19.03;7.43;;;7.70;99.90;;;;;;5032611;28;20061;-73
2023/03/20 01:18:47;;;;;;;11.32;5.68;;;7.80;99.90;;;;;;5033480;28;20033;-73
2023/03/20 01:21:13;;;;;;;16.48;5.78;;;7.80;99.90;;;;;;5031917;28;20108;-66
2023/03/20 01:23:39;;;;;;;10.45;5.15;;;7.70;99.90;;;;;;5033515;28;20060;-74
2023/03/20 01:26:31;;;;;;;11.87;5.73;;;7.80;99.90;;;;;;5028789;28;20049;-73
2023/03/20 01:28:57;;;;;;;12.73;6.00;;;7.70;99.90;;;;;;5027569;28;20129;-75
2023/03/20 01:31:22;;;;;;;17.77;6.30;;;7.70;99.90;;;;;;5034029;28;20116;-77
2023/03/20 01:33:48;;;;;;;12.30;6.33;;;7.70;99.90;;;;;;5029393;28;20037;-74
2023/03/20 01:36:16;;;;;;;10.20;5.53;;;7.70;99.90;;;;;;5033162;28;20116;-73
2023/03/20 01:38:42;;;;;;;13.40;5.65;;;7.70;99.90;;;;;;5032066;28;20124;-74
2023/03/20 01:41:16;;;;;;;13.10;5.97;;;7.60;99.90;;;;;;5048901;28;20025;-75
2023/03/20 01:43:44;;;;;;;15.15;5.82;;;7.60;99.90;;;;;;5032038;28;20040;-75
2023/03/20 01:46:30;;;;;;;14.55;5.60;;;7.50;99.90;;;;;;5033709;28;20336;-74
2023/03/20 01:49:07;;;;;;;9.15;5.93;;;7.50;99.90;;;;;;5031868;28;20018;-75
2023/03/20 01:51:34;;;;;;;11.07;6.22;;;7.50;99.90;;;;;;5024589;28;20044;-68
2023/03/20 01:54:06;;;;;;;15.80;6.55;;;7.40;99.90;;;;;;5031869;28;20040;-74
2023/03/20 01:56:37;;;;;;;15.43;6.53;;;7.40;99.90;;;;;;5031030;28;20116;-72
2023/03/20 01:59:13;;;;;;;17.35;6.00;;;7.30;99.90;;;;;;5031844;28;20831;-65
2023/03/20 02:01:40;;;;;;;13.20;5.90;;;7.30;99.90;;;;;;5033120;28;20290;-74
2023/03/20 02:04:07;;;;;;;18.40;6.82;;;7.40;99.90;;;;;;5031077;28;20025;-77
2023/03/20 02:06:35;;;;;;;13.10;6.80;;;7.30;99.90;;;;;;5048150;28;20064;-75
2023/03/20 02:09:03;;;;;;;15.63;6.78;;;7.40;99.90;;;;;;5031537;28;20036;-76
2023/03/20 02:11:29;;;;;;;15.27;6.13;;;7.40;99.90;;;;;;5031615;28;20037;-75
2023/03/20 02:13:57;;;;;;;15.27;6.93;;;7.40;99.90;;;;;;5026071;28;20033;-73
2023/03/20 02:16:23;;;;;;;18.08;6.05;;;7.40;99.90;;;;;;5032339;28;20025;-65
2023/03/20 02:18:51;;;;;;;21.03;7.73;;;7.40;99.90;;;;;;5033318;28;20436;-74
2023/03/20 02:21:45;;;;;;;12.13;6.07;;;7.40;99.90;;;;;;5031728;28;20026;-75
2023/03/20 02:24:49;;;;;;;14.48;6.00;;;7.40;99.90;;;;;;5029216;28;20068;-63
2023/03/20 02:27:39;;;;;;;22.13;7.15;;;7.40;99.90;;;;;;5008068;28;20433;-75
2023/03/20 02:30:42;;;;;;;16.25;6.68;;;7.40;99.90;;;;;;5027467;28;20032;-74
2023/03/20 02:33:29;;;;;;;18.30;7.13;;;7.40;99.90;;;;;;5023494;28;20051;-75
2023/03/20 02:35:54;;;;;;;;;;;7.40;99.90;;;;;;5023336;28;20124;-75
2023/03/20 02:38:42;;;;;;;14.45;6.55;;;7.40;99.90;;;;;;5030353;28;20277;-76
2023/03/20 02:41:19;;;;;;;17.83;6.55;;;7.40;99.90;;;;;;5033106;28;20095;-76
2023/03/20 02:44:04;;;;;;;16.42;6.63;;;7.30;99.90;;;;;;5032853;28;21430;-74
2023/03/20 02:46:33;;;;;;;14.90;6.75;;;7.30;99.90;;;;;;5036513;28;20021;-74
2023/03/20 02:49:24;;;;;;;18.60;7.30;;;7.30;99.90;;;;;;5036576;28;20018;-75
2023/03/20 02:52:15;;;;;;;17.33;7.10;;;7.40;99.90;;;;;;5049530;28;20033;-74
2023/03/20 02:54:47;;;;;;;18.65;7.15;;;7.40;99.90;;;;;;5035482;28;20021;-75
2023/03/20 02:57:38;;;;;;;15.85;6.82;;;7.40;99.90;;;;;;5025855;28;20033;-74
2023/03/20 03:00:28;;;;;;;15.88;6.65;;;7.20;99.90;;;;;;5029819;28;20594;-64
2023/03/20 03:03:21;;;;;;;17.98;7.63;;;7.20;99.90;;;;;;5035285;28;20060;-75
2023/03/20 03:05:50;;;;;;;19.05;7.35;;;7.10;99.90;;;;;;5035854;28;20041;-76
2023/03/20 03:08:19;;;;;;;22.05;9.40;;;7.10;99.90;;;;;;5035105;28;20411;-76
2023/03/20 03:11:08;;;;;;;24.35;7.53;;;7.00;99.90;;;;;;5027320;28;20030;-76
2023/03/20 03:13:55;;;;;;;26.98;8.73;;;7.00;99.90;;;;;;5035989;28;20041;-63
2023/03/20 03:16:31;;;;;;;26.88;9.63;;;7.00;99.90;;;;;;5028414;28;22230;-75
2023/03/20 03:19:21;;;;;;;27.45;9.95;;;7.00;99.90;;;;;;5028817;28;20040;-74
2023/03/20 03:21:48;;;;;;;22.42;8.80;;;7.00;99.90;;;;;;5048774;28;20029;-75
2023/03/20 03:24:23;;;;;;;24.88;10.63;;;7.00;99.90;;;;;;5034138;28;20037;-75
2023/03/20 03:26:50;;;;;;;26.80;10.65;;;7.00;99.90;;;;;;5034886;28;20117;-76
2023/03/20 03:29:18;;;;;;;27.40;10.00;;;7.00;99.90;;;;;;5034285;28;20042;-75
2023/03/20 03:31:45;;;;;;;23.77;10.80;;;7.00;99.90;;;;;;5034490;28;20091;-74
2023/03/20 03:34:15;;;;;;;25.52;9.90;;;6.90;99.90;;;;;;5031507;28;20030;-75
2023/03/20 03:37:16;;;;;;;22.98;10.30;;;7.00;99.90;;;;;;5035885;28;20032;-75
2023/03/20 03:40:06;;;;;;;29.00;10.80;;;7.00;99.90;;;;;;5026294;28;20088;-77
2023/03/20 03:42:40;;;;;;;30.67;11.45;;;7.00;99.90;;;;;;5029032;28;20101;-75
2023/03/20 03:45:19;;;;;;;27.23;10.07;;;6.90;99.90;;;;;;5031654;28;20022;-76
2023/03/20 03:47:55;;;;;;;28.80;11.32;;;6.90;99.90;;;;;;5028377;28;20025;-76
2023/03/20 03:50:28;;;;;;;22.55;11.15;;;6.90;99.90;;;;;;5034457;28;20022;-77
2023/03/20 03:52:58;;;;;;;27.98;10.93;;;6.90;99.90;;;;;;5036614;28;20037;-76
2023/03/20 03:55:35;;;;;;;28.23;11.82;;;6.90;99.90;;;;;;5035378;28;20029;-74
2023/03/20 03:58:08;;;;;;;28.83;10.93;;;6.90;99.90;;;;;;5030879;28;20040;-76
2023/03/20 04:00:35;;;;;;;25.15;10.75;;;6.90;99.90;;;;;;5027414;28;20427;-70
2023/03/20 04:03:05;;;;;;;24.50;11.13;;;6.90;99.90;;;;;;5035885;28;20030;-63
2023/03/20 04:05:31;;;;;;;22.90;10.80;;;6.90;99.90;;;;;;5030124;28;20018;-74
2023/03/20 04:07:58;;;;;;;;;;;6.90;99.90;;;;;;5035943;28;20032;-76
2023/03/20 04:10:24;;;;;;;25.92;11.65;;;6.90;99.90;;;;;;5027572;28;20366;-75
2023/03/20 04:12:50;;;;;;;27.90;10.40;;;6.90;99.90;;;;;;5033844;28;20033;-75
2023/03/20 04:15:16;;;;;;;29.00;12.20;;;6.90;99.90;;;;;;5026953;28;20313;-76
2023/03/20 04:17:42;;;;;;;30.52;11.15;;;6.90;99.90;;;;;;5030175;28;20034;-74
2023/03/20 04:20:09;;;;;;;23.27;11.02;;;6.90;99.90;;;;;;5031850;28;20034;-75
2023/03/20 04:22:35;;;;;;;25.98;11.07;;;6.90;99.90;;;;;;5033362;28;20404;-73
2023/03/20 04:25:02;;;;;;;28.97;10.43;;;6.90;99.90;;;;;;5033922;28;20029;-74
2023/03/20 04:27:28;;;;;;;28.58;11.68;;;6.90;99.90;;;;;;5029802;28;20137;-75
2023/03/20 04:29:54;;;;;;;24.93;11.13;;;6.90;99.90;;;;;;5033648;28;20112;-75
2023/03/20 04:32:20;;;;;;;30.00;10.00;;;6.80;99.90;;;;;;5028573;28;20026;-75
2023/03/20 04:34:46;;;;;;;26.93;11.80;;;6.90;99.90;;;;;;5031790;28;20412;-76
2023/03/20 04:37:12;;;;;;;30.53;10.57;;;6.80;99.90;;;;;;5027645;28;20058;-74
2023/03/20 04:39:38;;;;;;;25.92;9.95;;;6.90;99.90;;;;;;5033780;28;20368;-74
2023/03/20 04:42:04;;;;;;;23.87;10.50;;;6.90;99.90;;;;;;5028438;28;20033;-63
2023/03/20 04:44:31;;;;;;;33.13;11.05;;;6.80;99.90;;;;;;5033123;28;20458;-75
2023/03/20 04:46:57;;;;;;;27.58;9.77;;;6.80;99.90;;;;;;5033161;28;20540;-74
2023/03/20 04:49:23;;;;;;;23.52;10.98;;;6.80;99.90;;;;;;5033794;28;20048;-69
2023/03/20 04:51:49;;;;;;;22.87;10.10;;;6.80;99.90;;;;;;5028817;28;20430;-73
2023/03/20 04:54:15;;;;;;;25.30;10.70;;;6.80;99.90;;;;;;5026063;28;20048;-73
2023/03/20 04:56:40;;;;;;;25.83;9.98;;;6.80;99.90;;;;;;5031926;28;20030;-74
2023/03/20 04:59:06;;;;;;;29.90;11.17;;;6.80;99.90;;;;;;5028608;28;20036;-75
2023/03/20 05:01:32;;;;;;;30.53;11.50;;;6.80;99.90;;;;;;5027713;28;20032;-72
2023/03/20 05:04:00;;;;;;;21.30;10.47;;;6.80;99.90;;;;;;5030714;28;20018;-75
2023/03/20 05:06:33;;;;;;;23.08;11.30;;;6.80;99.90;;;;;;5034139;28;20359;-74
2023/03/20 05:08:59;;;;;;;24.55;10.35;;;6.80;99.90;;;;;;5023115;28;20039;-75
2023/03/20 05:11:26;;;;;;;30.55;11.38;;;6.80;99.90;;;;;;5026250;28;20036;-75
2023/03/20 05:13:52;;;;;;;19.85;10.25;;;6.80;99.90;;;;;;5027217;28;20041;-75
2023/03/20 05:16:18;;;;;;;26.73;11.80;;;6.80;99.90;;;;;;5031215;28;20124;-74
2023/03/20 05:18:44;;;;;;;22.63;11.02;;;6.80;99.90;;;;;;5029437;28;20061;-74
2023/03/20 05:21:10;;;;;;;23.83;11.20;;;6.80;99.90;;;;;;5033301;28;20040;-75
2023/03/20 05:23:35;;;;;;;21.40;10.10;;;6.70;99.90;;;;;;5033238;28;20566;-75
2023/03/20 05:26:01;;;;;;;22.83;10.30;;;6.70;99.90;;;;;;5031132;28;20053;-74
2023/03/20 05:28:27;;;;;;;19.63;9.47;;;6.80;99.90;;;;;;5033476;28;20356;-62
2023/03/20 05:30:53;;;;;;;23.27;10.77;;;6.70;99.90;;;;;;5048224;28;20033;-71
2023/03/20 05:33:19;;;;;;;24.70;10.65;;;6.70;99.90;;;;;;5032487;28;20320;-76
2023/03/20 05:35:45;;;;;;;19.47;10.67;;;6.70;99.90;;;;;;5026794;28;20086;-76
2023/03/20 05:38:10;;;;;;;21.93;10.33;;;6.70;99.90;;;;;;5033636;28;20416;-74
2023/03/20 05:40:36;;;;;;;27.03;10.97;;;6.70;99.90;;;;;;5034343;28;20021;-74
2023/03/20 05:43:03;;;;;;;26.73;11.37;;;6.70;99.90;;;;;;5025990;28;20037;-75
2023/03/20 05:45:28;;;;;;;23.40;11.35;;;6.70;99.90;;;;;;5034002;28;20116;-75
2023/03/20 05:47:54;;;;;;;25.37;11.23;;;6.70;99.90;;;;;;5033029;28;20112;-75
2023/03/20 05:50:20;;;;;;;22.30;10.97;;;6.70;99.90;;;;;;5033748;28;20056;-76
2023/03/20 05:52:47;;;;;;;22.80;9.90;;;6.70;99.90;;;;;;5033013;28;20029;-75
2023/03/20 05:55:13;;;;;;;19.30;9.98;;;6.70;99.90;;;;;;5031203;28;20047;-76
2023/03/20 05:57:39;;;;;;;22.70;11.85;;;6.70;99.90;;;;;;5029787;28;20160;-75
2023/03/20 06:00:07;;;;;;;23.80;9.93;;;6.70;99.90;;;;;;5032888;28;20405;-74
2023/03/20 06:02:33;;;;;;;20.67;10.98;;;6.70;99.90;;;;;;5029472;28;20026;-75
2023/03/20 06:04:59;;;;;;;20.67;11.13;;;6.70;99.90;;;;;;5025983;28;20083;-74
2023/03/20 06:07:24;;;;;;;21.97;10.23;;;6.70;99.90;;;;;;5033791;28;20026;-75
2023/03/20 06:09:50;;;;;;;24.20;11.17;;;6.70;99.90;;;;;;5026966;28;20329;-75
2023/03/20 06:12:16;;;;;;;21.33;10.40;;;6.70;99.90;;;;;;5029567;28;20384;-75
2023/03/20 06:14:42;;;;;;;23.47;11.77;;;6.70;99.90;;;;;;5030977;28;20037;-76
2023/03/20 06:17:08;;;;;;;18.03;10.77;;;6.70;99.90;;;;;;5032234;28;20021;-75
2023/03/20 06:19:34;;;;;;;27.13;11.83;;;6.70;99.90;;;;;;5027095;28;20268;-73
2023/03/20 06:21:59;;;;;;;25.87;11.57;;;6.80;99.90;;;;;;5036812;28;20420;-74
2023/03/20 06:24:25;;;;;;;25.53;11.33;;;6.80;99.90;;;;;;5034886;28;20032;-62
2023/03/20 06:26:51;;;;;;;23.70;10.07;;;6.70;99.90;;;;;;5035609;28;20436;-62
2023/03/20 06:29:17;;;;;;;27.53;10.73;;;6.80;99.90;;;;;;5032147;28;20481;-62
2023/03/20 06:31:43;;;;;;;20.13;10.83;;;6.80;99.90;;;;;;5033969;28;20128;-63
2023/03/20 06:34:08;;;;;;;23.27;10.97;;;6.80;99.90;;;;;;5036839;28;20301;-62
2023/03/20 06:36:34;;;;;;;20.10;10.17;;;6.80;99.90;;;;;;5026132;28;20034;-64
2023/03/20 06:39:00;;;;;;;26.53;11.30;;;6.90;99.90;;;;;;5027097;28;20056;-62
2023/03/20 06:41:26;;;;;;;31.33;11.87;;;6.90;99.90;;;;;;5033806;28;20022;-62
2023/03/20 06:43:52;;;;;;;29.07;11.97;;;6.90;99.90;;;;;;5034104;28;20029;-75
2023/03/20 06:46:17;;;;;;;40.80;12.33;;;6.90;99.90;;;;;;5028647;28;20026;-62
2023/03/20 06:48:43;;;;;;;38.03;11.80;;;6.90;99.90;;;;;;5026671;28;20124;-63
2023/03/20 06:51:09;;;;;;;24.23;11.47;;;6.90;99.90;;;;;;5026406;28;20029;-63
2023/03/20 06:53:35;;;;;;;63.38;29.58;;;6.90;99.90;;;;;;5030495;28;20368;-63
2023/03/20 06:56:01;;;;;;;29.83;14.07;;;6.90;99.90;;;;;;5026997;28;20084;-62
2023/03/20 06:58:27;;;;;;;27.87;13.13;;;6.90;99.90;;;;;;5033191;28;20018;-62
2023/03/20 07:00:53;;;;;;;31.77;17.97;;;6.90;99.90;;;;;;5032207;28;20045;-62
2023/03/20 07:03:20;;;;;;;31.27;15.90;;;6.90;99.90;;;;;;5031330;28;20033;-63
2023/03/20 07:05:45;;;;;;;25.05;14.05;;;6.90;99.90;;;;;;5023308;28;20033;-62
2023/03/20 07:08:11;;;;;;;25.73;11.70;;;7.00;99.90;;;;;;5030076;28;20409;-63
2023/03/20 07:10:37;;;;;;;29.80;16.13;;;7.00;99.90;;;;;;5021270;28;20030;-64
2023/03/20 07:13:03;;;;;;;29.52;13.18;;;7.00;99.90;;;;;;5021730;28;20048;-63
2023/03/20 07:15:29;;;;;;;20.73;11.80;;;7.00;99.90;;;;;;5009737;28;20041;-62
2023/03/20 07:17:55;;;;;;;23.37;11.07;;;7.00;99.90;;;;;;5020806;28;20029;-62
2023/03/20 07:20:21;;;;;;;28.80;11.63;;;7.00;99.90;;;;;;5030398;28;20091;-62
2023/03/20 07:22:47;;;;;;;29.05;11.27;;;7.00;99.90;;;;;;5029442;28;20029;-63
2023/03/20 07:25:14;;;;;;;26.13;10.37;;;7.00;99.90;;;;;;5028709;28;20038;-62
2023/03/20 07:27:39;;;;;;;26.55;11.35;;;7.10;99.90;;;;;;5031638;28;20283;-74
2023/03/20 07:30:07;;;;;;;28.73;13.27;;;7.10;99.90;;;;;;5030809;28;20356;-62
2023/03/20 07:32:36;;;;;;;21.88;11.82;;;7.10;99.90;;;;;;5024118;28;20056;-63
2023/03/20 07:35:02;;;;;;;23.70;11.63;;;7.20;99.90;;;;;;5023248;28;20021;-62
2023/03/20 07:37:27;;;;;;;17.63;9.33;;;7.20;99.90;;;;;;5029632;28;20052;-63
2023/03/20 07:39:53;;;;;;;30.57;11.77;;;7.20;99.90;;;;;;5033502;28;20048;-63
2023/03/20 07:42:19;;;;;;;20.20;9.10;;;7.20;99.90;;;;;;5033917;28;20037;-63
2023/03/20 07:44:44;;;;;;;14.73;9.20;;;7.20;99.90;;;;;;5033896;28;20080;-74
2023/03/20 07:47:10;;;;;;;18.53;9.33;;;7.20;99.90;;;;;;5030949;28;20030;-76
2023/03/20 07:49:36;;;;;;;25.97;9.37;;;7.20;99.90;;;;;;5022416;28;20083;-63
2023/03/20 07:52:01;;;;;;;21.53;9.27;;;7.30;99.90;;;;;;5028990;28;20037;-62
2023/03/20 07:54:27;;;;;;;20.10;8.83;;;7.30;99.90;;;;;;5034748;28;20064;-63
2023/03/20 07:56:53;;;;;;;28.33;13.27;;;7.30;99.90;;;;;;4951952;28;20033;-63
2023/03/20 07:59:18;;;;;;;18.93;8.90;;;7.30;99.90;;;;;;4920987;28;23537;-61
2023/03/20 08:01:44;;;;;;;22.93;8.57;;;7.30;99.90;;;;;;4917870;28;20029;-62
2023/03/20 08:04:10;;;;;;;19.60;9.17;;;7.30;99.90;;;;;;4916489;28;20040;-64
2023/03/20 08:06:38;;;;;;;20.53;9.50;;;7.40;99.90;;;;;;4919745;28;20084;-63
2023/03/20 08:09:04;;;;;;;21.58;9.20;;;7.40;99.90;;;;;;4921082;28;20191;-62
2023/03/20 08:11:30;;;;;;;20.45;8.27;;;7.40;99.90;;;;;;4920221;28;20550;-62
2023/03/20 08:13:56;;;;;;;25.53;8.50;;;7.40;99.90;;;;;;4919687;28;20041;-63
2023/03/20 08:16:21;;;;;;;18.43;8.20;;;7.40;99.90;;;;;;4919653;28;21504;-65
2023/03/20 08:18:49;;;;;;;19.10;7.70;;;7.50;99.90;;;;;;4918411;28;20028;-62
2023/03/20 08:21:15;;;;;;;22.67;8.60;;;7.40;99.90;;;;;;4919460;28;20444;-63
2023/03/20 08:23:41;;;;;;;23.38;8.15;;;7.50;99.90;;;;;;4921373;28;20889;-62
2023/03/20 08:26:07;;;;;;;19.63;7.63;;;7.60;99.90;;;;;;4920687;28;20811;-63
2023/03/20 08:28:33;;;;;;;17.67;7.80;;;7.60;99.90;;;;;;4920873;28;20049;-63
2023/03/20 08:30:59;;;;;;;16.93;7.70;;;7.70;99.90;;;;;;4920202;28;20782;-62
2023/03/20 08:33:24;;;;;;;15.10;7.53;;;7.70;99.90;;;;;;4916723;28;20875;-63
2023/03/20 08:35:57;;;;;;;18.07;7.23;;;7.70;99.90;;;;;;4916670;28;20487;-62
2023/03/20 08:38:23;;;;;;;16.27;6.82;;;7.80;99.90;;;;;;4918220;28;20033;-62
2023/03/20 08:40:49;;;;;;;12.13;6.17;;;7.80;99.90;;;;;;4920193;28;20060;-62
2023/03/20 08:43:15;;;;;;;22.00;8.60;;;7.80;99.90;;;;;;4919551;28;20117;-62
2023/03/20 08:45:40;;;;;;;15.03;6.90;;;7.80;99.90;;;;;;4920320;28;20671;-63
2023/03/20 08:48:06;;;;;;;13.47;6.67;;;7.80;99.90;;;;;;4919808;28;20112;-62
2023/03/20 08:50:32;;;;;;;15.57;7.40;;;7.80;99.90;;;;;;4916803;28;20446;-63
2023/03/20 08:52:57;;;;;;;23.83;8.53;;;7.80;99.90;;;;;;4922499;28;20045;-64
2023/03/20 08:55:23;;;;;;;60.93;22.83;;;7.80;99.90;;;;;;4918712;28;20120;-62
2023/03/20 08:57:49;;;;;;;23.13;8.73;;;7.90;99.90;;;;;;4959766;28;20037;-63
2023/03/20 09:00:18;;;;;;;29.40;8.80;;;7.80;99.90;;;;;;4949672;28;20087;-63
2023/03/20 09:02:43;;;;;;;20.52;8.02;;;7.80;99.90;;;;;;4923510;28;20049;-63
2023/03/20 09:05:10;;;;;;;18.57;6.73;;;7.80;99.90;;;;;;4922165;28;20028;-63
2023/03/20 09:07:36;;;;;;;20.63;7.03;;;7.90;99.90;;;;;;4922878;28;20071;-62
2023/03/20 09:10:03;;;;;;;10.65;6.47;;;8.00;99.90;;;;;;4922753;28;22242;-62
2023/03/20 09:12:30;;;;;;;17.67;7.47;;;8.00;99.90;;;;;;4925255;28;24067;-62
2023/03/20 09:14:56;;;;;;;17.25;6.90;;;8.00;99.90;;;;;;4929047;28;20321;-62
2023/03/20 09:17:22;;;;;;;23.17;7.05;;;8.10;99.90;;;;;;4927548;28;20329;-62
2023/03/20 09:19:48;;;;;;;15.97;6.93;;;8.10;99.90;;;;;;4919906;28;20030;-62
2023/03/20 09:22:16;;;;;;;24.50;7.13;;;8.10;99.90;;;;;;4919349;28;21589;-62
2023/03/20 09:24:43;;;;;;;15.27;7.28;;;8.20;99.90;;;;;;4932132;28;20041;-62
2023/03/20 09:27:09;;;;;;;20.02;7.03;;;8.30;99.90;;;;;;4918052;28;20026;-63
2023/03/20 09:29:34;;;;;;;51.60;19.73;;;8.40;99.90;;;;;;4919537;28;20100;-62
2023/03/20 09:32:00;;;;;;;20.57;10.83;;;8.50;99.90;;;;;;4917659;28;20025;-63
2023/03/20 09:34:26;;;;;;;19.00;8.37;;;8.50;99.90;;;;;;4919832;28;20136;-63
2023/03/20 09:36:52;;;;;;;14.50;6.27;;;8.50;99.90;;;;;;4917946;28;20067;-63
2023/03/20 09:39:17;;;;;;;19.47;7.07;;;8.50;99.90;;;;;;4917986;28;20029;-62
2023/03/20 09:41:50;;;;;;;14.97;7.10;;;8.50;99.90;;;;;;4918303;28;21719;-63
2023/03/20 09:44:38;;;;;;;13.27;6.32;;;8.50;99.90;;;;;;4917389;28;20681;-63
2023/03/20 09:47:32;;;;;;;17.15;6.60;;;8.50;99.90;;;;;;4917108;28;20026;-63
2023/03/20 09:50:32;;;;;;;17.55;6.70;;;8.60;99.90;;;;;;4919205;28;20021;-62
2023/03/20 09:53:17;;;;;;;11.27;5.97;;;8.70;99.90;;;;;;4918794;28;20024;-63
2023/03/20 09:55:43;;;;;;;13.25;5.40;;;8.70;99.90;;;;;;4918398;28;20036;-64
2023/03/20 09:58:34;;;;;;;13.57;5.22;;;8.80;99.90;;;;;;4919528;28;20553;-64
2023/03/20 10:01:03;;;;;;;22.30;5.75;;;8.80;99.90;;;;;;4919785;28;20042;-63
2023/03/20 10:03:56;;;;;;;12.88;5.63;;;8.80;99.90;;;;;;4920878;28;20022;-63
2023/03/20 10:06:22;;;;;;;11.32;5.60;;;8.80;99.90;;;;;;4919243;28;20022;-63
2023/03/20 10:08:48;;;;;;;18.33;5.80;;;8.90;99.90;;;;;;4933260;28;20028;-65
2023/03/20 10:11:38;;;;;;;14.40;5.40;;;8.90;99.90;;;;;;4918103;28;20037;-64
2023/03/20 10:14:29;;;;;;;18.55;6.30;;;9.00;99.90;;;;;;4917638;28;20030;-63
2023/03/20 10:17:13;;;;;;;17.55;5.90;;;9.00;99.90;;;;;;4917275;28;20038;-63
2023/03/20 10:19:48;;;;;;;18.58;5.35;;;9.00;99.90;;;;;;4917658;28;23990;-63
2023/03/20 10:22:13;;;;;;;18.27;5.53;;;8.80;99.90;;;;;;4917746;28;20045;-63
2023/03/20 10:24:46;;;;;;;18.80;6.27;;;8.70;99.90;;;;;;4919440;28;20029;-65
2023/03/20 10:27:26;;;;;;;14.20;5.72;;;8.80;99.90;;;;;;4920376;28;20030;-63
2023/03/20 10:30:18;;;;;;;16.50;6.15;;;8.80;99.90;;;;;;4919418;28;20022;-63
2023/03/20 10:33:09;;;;;;;16.13;6.38;;;8.60;99.90;;;;;;4917394;28;24135;-63
2023/03/20 10:35:45;;;;;;;20.02;9.90;;;8.80;99.90;;;;;;4917574;28;20652;-63
2023/03/20 10:38:33;;;;;;;21.70;13.18;;;8.80;99.90;;;;;;4919377;28;20391;-63
2023/03/20 10:40:59;;;;;;;20.88;7.18;;;8.80;99.90;;;;;;4918700;28;20731;-63
2023/03/20 10:43:34;;;;;;;26.87;7.17;;;8.90;99.90;;;;;;4918131;28;20018;-63
2023/03/20 10:46:06;;;;;;;25.10;8.15;;;8.90;99.90;;;;;;4918964;28;20901;-64
2023/03/20 10:48:54;;;;;;;20.75;7.90;;;8.90;99.90;;;;;;4917805;28;24247;-63
2023/03/20 10:51:24;;;;;;;17.00;7.28;;;8.90;99.90;;;;;;4916328;28;20033;-63
2023/03/20 10:54:05;;;;;;;18.60;8.27;;;8.80;99.90;;;;;;4914631;28;20030;-64
2023/03/20 10:56:42;;;;;;;18.63;8.80;;;8.80;99.90;;;;;;4914504;28;20022;-63
2023/03/20 10:59:24;;;;;;;26.50;9.38;;;8.80;99.90;;;;;;4915695;28;20683;-65
2023/03/20 11:01:50;;;;;;;23.73;9.88;;;8.80;99.90;;;;;;4917492;28;23589;-64
2023/03/20 11:04:15;;;;;;;28.47;9.97;;;8.80;99.90;;;;;;4918305;28;20111;-63
2023/03/20 11:06:50;;;;;;;20.53;9.77;;;8.80;99.90;;;;;;4916696;28;20099;-64
2023/03/20 11:09:22;;;;;;;26.00;9.85;;;8.80;99.90;;;;;;4920432;28;20376;-63
2023/03/20 11:11:51;;;;;;;20.02;10.60;;;8.80;99.90;;;;;;4919015;28;20301;-64
2023/03/20 11:14:19;;;;;;;28.77;10.57;;;8.90;99.90;;;;;;4919906;28;20108;-64
2023/03/20 11:16:53;;;;;;;32.35;14.15;;;9.00;99.90;;;;;;4918488;28;20052;-63
2023/03/20 11:19:20;;;;;;;28.02;11.85;;;9.00;99.90;;;;;;4917386;28;20030;-64
2023/03/20 11:21:50;;;;;;;30.15;11.98;;;9.00;99.90;;;;;;4918788;28;20168;-64
2023/03/20 11:24:41;;;;;;;25.05;11.32;;;9.00;99.90;;;;;;4934817;28;21025;-64
2023/03/20 11:27:14;;;;;;;25.85;11.85;;;9.00;99.90;;;;;;4920594;28;20029;-64
2023/03/20 11:29:42;;;;;;;24.88;11.15;;;8.90;99.90;;;;;;4918763;28;20336;-64
2023/03/20 11:32:24;;;;;;;20.35;10.98;;;8.90;99.90;;;;;;4919934;28;20033;-65
2023/03/20 11:34:50;;;;;;;28.02;11.57;;;9.00;99.90;;;;;;4920620;28;20333;-76
2023/03/20 11:37:33;;;;;;;23.13;11.40;;;9.00;99.90;;;;;;4918367;28;20876;-68
2023/03/20 11:40:00;;;;;;;24.88;11.50;;;8.90;99.90;;;;;;4921550;28;20029;-65
2023/03/20 11:42:29;;;;;;;24.55;11.85;;;8.90;99.90;;;;;;4921331;28;20407;-64
2023/03/20 11:45:14;;;;;;;23.40;12.35;;;8.90;99.90;;;;;;4920650;28;20112;-64
2023/03/20 11:47:40;;;;;;;24.05;12.68;;;8.80;99.90;;;;;;4920144;28;20479;-64
2023/03/20 11:50:23;;;;;;;24.73;13.75;;;8.80;99.90;;;;;;4920025;28;20079;-64
2023/03/20 11:52:48;;;;;;;24.20;12.15;;;8.80;99.90;;;;;;4930342;28;21221;-64
2023/03/20 11:55:45;;;;;;;32.17;13.17;;;8.90;99.90;;;;;;4916514;28;20560;-64
2023/03/20 11:58:15;;;;;;;25.73;13.45;;;8.90;99.90;;;;;;4929365;28;20044;-64
2023/03/20 12:00:41;;;;;;;29.73;13.82;;;9.00;99.90;;;;;;4933280;28;20448;-64
2023/03/20 12:03:41;;;;;;;28.48;13.45;;;9.10;99.90;;;;;;4932848;28;20083;-63
2023/03/20 12:06:13;;;;;;;29.95;13.88;;;9.20;99.90;;;;;;4932278;28;24453;-65
2023/03/20 12:08:41;;;;;;;30.38;14.15;;;9.20;99.90;;;;;;4927480;28;20030;-63
2023/03/20 12:11:40;;;;;;;31.20;13.40;;;9.30;99.90;;;;;;4931383;28;20151;-64
2023/03/20 12:14:12;;;;;;;28.25;12.40;;;9.30;99.90;;;;;;4921608;28;20346;-64
2023/03/20 12:16:39;;;;;;;30.25;13.40;;;9.30;99.90;;;;;;4930565;28;20029;-64
2023/03/20 12:19:17;;;;;;;26.10;13.25;;;9.30;99.90;;;;;;4931188;28;20037;-63
2023/03/20 12:21:51;;;;;;;44.85;21.23;;;9.30;99.90;;;;;;4935213;28;20048;-64
2023/03/20 12:24:40;;;;;;;31.90;14.70;;;9.30;99.90;;;;;;4934724;28;20686;-63
2023/03/20 12:27:24;;;;;;;38.17;15.13;;;9.40;99.90;;;;;;4934035;28;20021;-65
2023/03/20 12:30:26;;;;;;;30.13;13.07;;;9.30;99.90;;;;;;4931773;28;20041;-74
2023/03/20 12:33:00;;;;;;;33.05;13.15;;;9.40;99.90;;;;;;4922874;28;20083;-64
2023/03/20 12:35:33;;;;;;;33.75;13.63;;;9.40;99.90;;;;;;4922651;28;20067;-64
2023/03/20 12:37:59;;;;;;;27.45;13.23;;;9.30;99.90;;;;;;4919826;28;20030;-67
2023/03/20 12:40:53;;;;;;;36.80;12.98;;;9.30;99.90;;;;;;4919598;28;20029;-64
2023/03/20 12:43:29;;;;;;;24.83;13.57;;;9.30;99.90;;;;;;4918161;28;21442;-68
2023/03/20 12:46:25;;;;;;;34.10;13.10;;;9.40;99.90;;;;;;4920100;28;21713;-64
2023/03/20 12:49:26;;;;;;;32.13;13.20;;;9.30;99.90;;;;;;4912922;28;20056;-64
2023/03/20 12:52:16;;;;;;;33.90;12.35;;;9.20;99.90;;;;;;4897364;28;20036;-67
2023/03/20 12:55:00;;;;;;;39.90;13.93;;;9.20;99.90;;;;;;4912771;28;20038;-71
2023/03/20 12:58:10;;;;;;;27.30;12.40;;;9.20;99.90;;;;;;4910710;28;20160;-64
2023/03/20 13:00:44;;;;;;;22.80;12.68;;;9.30;99.90;;;;;;4848673;28;21452;-64
2023/03/20 13:03:43;;;;;;;19.40;12.35;;;9.30;99.90;;;;;;4852435;28;20022;-66
2023/03/20 13:06:43;;;;;;;35.72;14.43;;;9.30;99.90;;;;;;4842992;28;20039;-65